Time;durP1;ratioP1;P1;durP2;ratioP2;P2;SDS_P1;SDS_P2;PMS_P1;PMS_P2;Temp;Humidity;BMP_temperature;BMP_pressure;BME280_temperature;BME280_humidity;BME280_pressure;Samples;Min_cycle;Max_cycle;Signal;HPM_P1;HPM_P2
2022/06/14 00:01:40;;;;;;;0.00;0.00;;;9.20;99.90;;;;;;4880257;29;20132;-86
2022/06/14 00:04:05;;;;;;;0.00;0.00;;;9.60;99.90;;;;;;4881974;29;20446;-86
2022/06/14 00:06:33;;;;;;;0.05;0.05;;;9.10;99.90;;;;;;4864096;29;20128;-87
2022/06/14 00:08:59;;;;;;;0.10;0.10;;;9.10;99.90;;;;;;4878378;29;20511;-87
2022/06/14 00:11:36;;;;;;;0.10;0.10;;;9.00;99.90;;;;;;4880619;29;20052;-87
2022/06/14 00:14:04;;;;;;;0.32;0.28;;;8.90;99.90;;;;;;4880630;29;20100;-87
2022/06/14 00:16:31;;;;;;;0.15;0.15;;;8.80;99.90;;;;;;4877384;29;20041;-87
2022/06/14 00:18:57;;;;;;;0.38;0.32;;;9.10;99.90;;;;;;4875109;29;20051;-87
2022/06/14 00:21:24;;;;;;;0.00;0.00;;;8.70;99.90;;;;;;4884149;29;20084;-87
2022/06/14 00:23:50;;;;;;;0.03;0.03;;;8.90;99.90;;;;;;4876557;29;20052;-85
2022/06/14 00:26:16;;;;;;;0.10;0.10;;;8.60;99.90;;;;;;4891033;29;20037;-85
2022/06/14 00:28:43;;;;;;;0.00;0.00;;;8.50;99.90;;;;;;4882618;29;20522;-85
2022/06/14 00:31:16;;;;;;;0.32;0.32;;;8.40;99.90;;;;;;4862724;29;20370;-85
2022/06/14 00:33:42;;;;;;;0.43;0.30;;;8.40;99.90;;;;;;4864880;29;20124;-85
2022/06/14 00:36:19;;;;;;;0.17;0.17;;;8.30;99.90;;;;;;4867978;29;20116;-85
2022/06/14 00:38:44;;;;;;;0.20;0.20;;;8.30;99.90;;;;;;4866542;29;20052;-85
2022/06/14 00:41:32;;;;;;;0.10;0.10;;;8.30;99.90;;;;;;4880967;29;20555;-87
2022/06/14 00:43:58;;;;;;;0.30;0.30;;;8.20;99.90;;;;;;4863775;29;20064;-86
2022/06/14 00:46:33;;;;;;;0.10;0.10;;;8.20;99.90;;;;;;4882487;29;20045;-87
2022/06/14 00:49:04;;;;;;;0.00;0.00;;;8.10;99.90;;;;;;4899611;29;20052;-87
2022/06/14 00:51:36;;;;;;;0.00;0.00;;;8.10;99.90;;;;;;4866484;29;20536;-87
2022/06/14 00:54:34;;;;;;;0.15;0.15;;;8.10;99.90;;;;;;4880420;29;20040;-86
2022/06/14 00:57:08;;;;;;;0.00;0.00;;;8.00;99.90;;;;;;4857653;29;20109;-85
2022/06/14 00:59:43;;;;;;;0.00;0.00;;;8.00;99.90;;;;;;4861971;29;20105;-85
2022/06/14 01:02:17;;;;;;;0.00;0.00;;;7.90;99.90;;;;;;4862185;29;20053;-85
2022/06/14 01:04:43;;;;;;;0.10;0.10;;;7.50;99.90;;;;;;4862044;29;20496;-85
2022/06/14 01:07:13;;;;;;;0.10;0.10;;;8.40;99.90;;;;;;4843885;29;20044;-85
2022/06/14 01:09:48;;;;;;;0.00;0.00;;;7.80;99.90;;;;;;4880304;29;20084;-85
2022/06/14 01:12:29;;;;;;;0.00;0.00;;;7.70;99.90;;;;;;4865227;29;20045;-85
2022/06/14 01:15:06;;;;;;;0.10;0.10;;;7.70;99.90;;;;;;4865998;29;20055;-87
2022/06/14 01:17:38;;;;;;;0.10;0.10;;;7.70;99.90;;;;;;4883794;29;20044;-86
2022/06/14 01:20:04;;;;;;;0.03;0.03;;;7.60;99.90;;;;;;4884258;29;20076;-87
2022/06/14 01:22:31;;;;;;;0.10;0.10;;;7.70;99.90;;;;;;4895984;29;20056;-87
2022/06/14 01:25:00;;;;;;;0.10;0.10;;;7.70;99.90;;;;;;4864701;29;20045;-86
2022/06/14 01:27:27;;;;;;;0.17;0.17;;;7.70;99.90;;;;;;4878777;29;20063;-87
2022/06/14 01:30:07;;;;;;;0.00;0.00;;;7.70;99.90;;;;;;4864595;29;20543;-87
2022/06/14 01:32:38;;;;;;;0.10;0.10;;;7.70;99.90;;;;;;4879573;29;20044;-87
2022/06/14 01:35:08;;;;;;;0.10;0.10;;;8.30;99.90;;;;;;4876056;29;20080;-87
2022/06/14 01:37:34;;;;;;;0.28;0.28;;;7.60;99.90;;;;;;4861452;29;20397;-87
2022/06/14 01:40:05;;;;;;;0.45;0.45;;;7.70;99.90;;;;;;4845992;29;20037;-86
2022/06/14 01:42:49;;;;;;;0.00;0.00;;;7.60;99.90;;;;;;4861343;29;20056;-87
2022/06/14 01:45:58;;;;;;;0.20;0.20;;;7.60;99.90;;;;;;4866035;29;20052;-87
2022/06/14 01:48:35;;;;;;;0.10;0.10;;;7.50;99.90;;;;;;4859314;29;20088;-85
2022/06/14 01:54:10;;;;;;;0.00;0.00;;;8.20;99.90;;;;;;4869639;29;20049;-85
2022/06/14 01:57:04;;;;;;;2.05;1.17;;;7.50;99.90;;;;;;4878669;29;20055;-85
2022/06/14 01:59:45;;;;;;;0.00;0.00;;;7.50;99.90;;;;;;4867128;29;20045;-85
2022/06/14 02:02:15;;;;;;;0.00;0.00;;;7.50;99.90;;;;;;4881999;29;20160;-84
2022/06/14 02:04:56;;;;;;;0.20;0.20;;;7.50;99.90;;;;;;4882785;29;20049;-85
2022/06/14 02:07:35;;;;;;;0.03;0.03;;;7.50;99.90;;;;;;4864542;29;20044;-85
2022/06/14 02:10:01;;;;;;;0.00;0.00;;;7.50;99.90;;;;;;4861221;29;20448;-85
2022/06/14 02:12:39;;;;;;;0.03;0.03;;;7.40;99.90;;;;;;4900388;29;20072;-85
2022/06/14 02:15:31;;;;;;;0.10;0.10;;;7.40;99.90;;;;;;4889274;29;20432;-84
2022/06/14 02:18:07;;;;;;;0.00;0.00;;;7.40;99.90;;;;;;4886602;29;20083;-85
2022/06/14 02:20:39;;;;;;;0.00;0.00;;;7.50;99.90;;;;;;4879641;29;20100;-85
2022/06/14 02:23:08;;;;;;;0.00;0.00;;;7.50;99.90;;;;;;4863331;29;20109;-84
2022/06/14 02:25:52;;;;;;;0.17;0.17;;;7.50;99.90;;;;;;4865584;29;20041;-84
2022/06/14 02:28:25;;;;;;;0.00;0.00;;;7.50;99.90;;;;;;4874782;29;20041;-85
2022/06/14 02:30:59;;;;;;;0.00;0.00;;;7.50;99.90;;;;;;4883941;29;20053;-85
2022/06/14 02:33:37;;;;;;;0.57;0.57;;;7.50;99.90;;;;;;4882077;29;20056;-85
2022/06/14 02:36:20;;;;;;;0.00;0.00;;;7.50;99.90;;;;;;4889156;29;20100;-85
2022/06/14 02:39:40;;;;;;;0.10;0.10;;;7.50;99.90;;;;;;4863827;29;20076;-85
2022/06/14 02:42:21;;;;;;;0.00;0.00;;;7.50;99.90;;;;;;4845519;29;20049;-85
2022/06/14 02:44:57;;;;;;;0.15;0.10;;;7.60;99.90;;;;;;4841818;29;20545;-85
2022/06/14 02:47:33;;;;;;;0.10;0.10;;;7.60;99.90;;;;;;4856120;29;20045;-84
2022/06/14 02:50:10;;;;;;;0.00;0.00;;;7.60;99.90;;;;;;4859246;29;20120;-84
2022/06/14 02:52:54;;;;;;;0.30;0.30;;;7.70;99.90;;;;;;4870305;29;20059;-85
2022/06/14 02:55:34;;;;;;;0.00;0.00;;;7.70;99.90;;;;;;4860376;29;20049;-85
2022/06/14 02:58:21;;;;;;;0.00;0.00;;;7.70;99.90;;;;;;4860666;29;20397;-85
2022/06/14 03:01:04;;;;;;;0.00;0.00;;;7.80;99.90;;;;;;4842604;29;20041;-85
2022/06/14 03:03:47;;;;;;;0.10;0.10;;;7.70;99.90;;;;;;4851967;29;20053;-85
2022/06/14 03:06:31;;;;;;;0.10;0.10;;;7.80;99.90;;;;;;4845292;29;20045;-85
2022/06/14 03:09:00;;;;;;;0.00;0.00;;;7.70;99.90;;;;;;4873886;29;20046;-85
2022/06/14 03:11:38;;;;;;;0.10;0.10;;;8.00;99.90;;;;;;4876200;29;20084;-87
2022/06/14 03:14:18;;;;;;;0.10;0.10;;;7.70;99.90;;;;;;4852150;29;20045;-86
2022/06/14 03:17:04;;;;;;;0.10;0.10;;;7.70;99.90;;;;;;4864784;29;20232;-87
2022/06/14 03:19:48;;;;;;;0.03;0.03;;;7.70;99.90;;;;;;4882403;29;20044;-87
2022/06/14 03:22:28;;;;;;;0.10;0.10;;;7.70;99.90;;;;;;4866560;29;20063;-87
2022/06/14 03:25:06;;;;;;;0.10;0.10;;;7.70;99.90;;;;;;4869920;29;20089;-87
2022/06/14 03:27:39;;;;;;;0.00;0.00;;;7.80;99.90;;;;;;4862809;29;20146;-87
2022/06/14 03:30:49;;;;;;;0.00;0.00;;;7.70;99.90;;;;;;4880195;29;20051;-87
2022/06/14 03:33:27;;;;;;;0.10;0.10;;;7.70;99.90;;;;;;4881270;29;20094;-86
2022/06/14 03:35:54;;;;;;;0.10;0.10;;;7.80;99.90;;;;;;4867364;29;20052;-87
2022/06/14 03:38:53;;;;;;;0.05;0.05;;;7.90;99.90;;;;;;4874797;29;20041;-87
2022/06/14 03:41:32;;;;;;;0.10;0.10;;;7.90;99.90;;;;;;4863121;29;20501;-87
2022/06/14 03:44:01;;;;;;;0.10;0.10;;;7.90;99.90;;;;;;4875338;29;20064;-85
2022/06/14 03:46:44;;;;;;;0.05;0.05;;;7.90;99.90;;;;;;4881622;29;20060;-85
2022/06/14 03:49:20;;;;;;;0.00;0.00;;;7.90;99.90;;;;;;4881598;29;20052;-85
2022/06/14 03:52:02;;;;;;;;;;;8.00;99.90;;;;;;4881560;29;20164;-85
2022/06/14 03:54:46;;;;;;;0.10;0.10;;;8.00;99.90;;;;;;4884551;29;19924;-86
2022/06/14 03:57:47;;;;;;;0.20;0.20;;;8.10;99.90;;;;;;4900678;29;20515;-85
2022/06/14 04:00:34;;;;;;;0.10;0.10;;;8.10;99.90;;;;;;4852552;29;20085;-85
2022/06/14 04:03:06;;;;;;;0.10;0.10;;;8.10;99.90;;;;;;4863852;29;20052;-85
2022/06/14 04:05:32;;;;;;;0.00;0.00;;;8.20;99.90;;;;;;4881477;29;20116;-85
2022/06/14 04:08:22;;;;;;;0.20;0.20;;;8.20;99.90;;;;;;4881521;29;20091;-85
2022/06/14 04:11:09;;;;;;;0.43;0.38;;;8.20;99.90;;;;;;4881411;29;20102;-85
2022/06/14 04:13:42;;;;;;;;;;;8.20;99.90;;;;;;4891543;29;20045;-85
2022/06/14 04:16:30;;;;;;;0.10;0.10;;;8.20;99.90;;;;;;4876155;29;20015;-85
2022/06/14 04:19:16;;;;;;;0.05;0.05;;;8.30;99.90;;;;;;4862593;29;20045;-85
2022/06/14 04:22:14;;;;;;;0.30;0.30;;;8.40;99.90;;;;;;4862861;29;20057;-85
2022/06/14 04:24:47;;;;;;;0.03;0.03;;;8.50;99.90;;;;;;4860416;29;20522;-85
2022/06/14 04:27:22;;;;;;;0.00;0.00;;;8.60;99.90;;;;;;4879642;29;20059;-85
2022/06/14 04:29:56;;;;;;;0.10;0.10;;;8.70;99.90;;;;;;4864877;29;20559;-85
2022/06/14 04:32:46;;;;;;;0.32;0.32;;;8.90;99.90;;;;;;4862419;29;20170;-85
2022/06/14 04:35:26;;;;;;;0.10;0.10;;;8.90;99.90;;;;;;4847647;29;20113;-85
2022/06/14 04:38:01;;;;;;;0.38;0.38;;;9.20;99.90;;;;;;4875786;29;20040;-86
2022/06/14 04:40:41;;;;;;;1.08;0.82;;;9.20;99.90;;;;;;4865827;29;20045;-86
2022/06/14 04:43:12;;;;;;;0.20;0.20;;;9.40;99.90;;;;;;4874922;29;20077;-85
2022/06/14 04:45:45;;;;;;;0.00;0.00;;;9.70;99.90;;;;;;4862071;29;20055;-86
2022/06/14 04:48:29;;;;;;;1.55;1.45;;;9.90;99.90;;;;;;4862212;29;20056;-85
2022/06/14 04:51:05;;;;;;;0.05;0.03;;;10.00;99.90;;;;;;4862304;29;20400;-87
2022/06/14 04:53:44;;;;;;;0.03;0.03;;;10.00;99.90;;;;;;4862032;29;20054;-87
2022/06/14 04:56:17;;;;;;;0.00;0.00;;;10.20;99.90;;;;;;4862379;29;20496;-87
2022/06/14 04:58:58;;;;;;;0.10;0.10;;;10.40;99.90;;;;;;4879594;29;20037;-87
2022/06/14 05:01:30;;;;;;;0.10;0.10;;;10.60;99.90;;;;;;4880904;29;20044;-87
2022/06/14 05:04:00;;;;;;;0.32;0.20;;;10.80;99.90;;;;;;4864254;29;20041;-87
2022/06/14 05:06:53;;;;;;;0.00;0.00;;;11.00;99.90;;;;;;4881000;29;20100;-87
2022/06/14 05:09:25;;;;;;;0.63;0.28;;;11.40;99.90;;;;;;4860893;29;20060;-87
2022/06/14 05:12:00;;;;;;;0.17;0.17;;;11.40;99.90;;;;;;4861899;29;20060;-87
2022/06/14 05:14:38;;;;;;;0.10;0.10;;;11.60;99.90;;;;;;4846202;29;20049;-87
2022/06/14 05:17:10;;;;;;;0.08;0.08;;;;;;;;;;4861534;29;20615;-87
2022/06/14 05:19:39;;;;;;;0.05;0.05;;;12.00;99.90;;;;;;4846102;29;20117;-87
2022/06/14 05:22:14;;;;;;;0.20;0.10;;;12.20;99.90;;;;;;4864251;29;20483;-87
2022/06/14 05:24:40;;;;;;;0.10;0.10;;;12.40;99.90;;;;;;4880023;29;20528;-86
2022/06/14 05:27:25;;;;;;;0.00;0.00;;;12.60;99.90;;;;;;4863206;29;20045;-86
2022/06/14 05:30:09;;;;;;;0.00;0.00;;;13.10;99.90;;;;;;4880302;29;20052;-86
2022/06/14 05:33:02;;;;;;;0.10;0.10;;;15.20;99.90;;;;;;4862257;29;20563;-86
2022/06/14 05:35:39;;;;;;;0.03;0.03;;;16.00;99.90;;;;;;4868917;29;20041;-86
2022/06/14 05:38:05;;;;;;;0.00;0.00;;;17.00;99.90;;;;;;4864009;29;20056;-86
2022/06/14 05:40:44;;;;;;;0.25;0.15;;;17.60;99.90;;;;;;4864275;29;20077;-88
2022/06/14 05:43:33;;;;;;;0.10;0.10;;;18.20;99.90;;;;;;4879479;29;20057;-88
2022/06/14 05:46:16;;;;;;;0.00;0.00;;;19.10;99.90;;;;;;4878908;29;20049;-88
2022/06/14 05:48:51;;;;;;;0.45;0.40;;;19.90;99.90;;;;;;4879449;29;20041;-87
2022/06/14 05:51:21;;;;;;;0.63;0.63;;;20.10;99.90;;;;;;4861057;29;20511;-88
2022/06/14 05:53:57;;;;;;;0.10;0.10;;;20.90;99.90;;;;;;4860871;29;20041;-88
2022/06/14 05:56:38;;;;;;;0.20;0.20;;;21.40;99.90;;;;;;4861063;29;20068;-89
2022/06/14 05:59:10;;;;;;;0.00;0.00;;;21.80;99.90;;;;;;4866729;29;20046;-88
2022/06/14 06:01:44;;;;;;;0.10;0.10;;;21.90;99.50;;;;;;4860709;29;20136;-88
2022/06/14 06:04:28;;;;;;;0.00;0.00;;;;;;;;;;4845472;29;20515;-88
2022/06/14 06:06:59;;;;;;;0.10;0.10;;;22.60;99.50;;;;;;4878472;29;20049;-87
2022/06/14 06:09:32;;;;;;;0.98;0.52;;;22.60;98.00;;;;;;4860904;29;20072;-87
2022/06/14 06:12:09;;;;;;;0.03;0.03;;;22.90;96.60;;;;;;4878275;29;20069;-88
2022/06/14 06:14:56;;;;;;;0.17;0.17;;;23.10;98.10;;;;;;4861750;29;20056;-86
2022/06/14 06:17:33;;;;;;;0.03;0.03;;;23.20;95.20;;;;;;4877828;29;20536;-86
2022/06/14 06:20:25;;;;;;;0.52;0.52;;;23.50;96.10;;;;;;4864112;29;20377;-86
2022/06/14 06:22:59;;;;;;;1.17;0.10;;;23.70;94.90;;;;;;4860521;29;20053;-86
2022/06/14 06:25:28;;;;;;;0.20;0.20;;;23.90;95.30;;;;;;4863557;29;20048;-88
2022/06/14 06:28:02;;;;;;;0.13;0.13;;;24.00;92.90;;;;;;4859145;29;20514;-86
2022/06/14 06:30:40;;;;;;;0.20;0.20;;;24.30;92.70;;;;;;4862070;29;20056;-87
2022/06/14 06:33:10;;;;;;;0.35;0.22;;;24.40;91.80;;;;;;4877081;29;20045;-87
2022/06/14 06:36:05;;;;;;;0.20;0.20;;;24.60;93.00;;;;;;4893876;29;20053;-87
2022/06/14 06:38:41;;;;;;;0.17;0.17;;;24.80;93.00;;;;;;4870254;29;20468;-87
2022/06/14 06:44:16;;;;;;;0.00;0.00;;;25.40;90.70;;;;;;4878005;29;20460;-87
2022/06/14 06:46:48;;;;;;;0.10;0.10;;;25.60;90.20;;;;;;4881128;29;20127;-87
2022/06/14 06:49:18;;;;;;;0.00;0.00;;;25.80;89.60;;;;;;4869596;29;20051;-87
2022/06/14 06:51:49;;;;;;;0.10;0.10;;;26.30;88.20;;;;;;4864526;29;20511;-87
2022/06/14 06:54:24;;;;;;;0.10;0.10;;;26.30;90.30;;;;;;4856435;29;20038;-87
2022/06/14 06:56:55;;;;;;;0.10;0.10;;;26.50;85.20;;;;;;4873098;29;20052;-87
2022/06/14 06:59:29;;;;;;;0.03;0.03;;;26.90;85.40;;;;;;4875227;29;20073;-87
2022/06/14 07:01:59;;;;;;;0.20;0.20;;;27.50;82.00;;;;;;4867212;29;20061;-87
2022/06/14 07:07:19;;;;;;;0.00;0.00;;;28.40;80.30;;;;;;4874835;29;20045;-86
2022/06/14 07:10:23;;;;;;;0.10;0.10;;;27.90;79.00;;;;;;4878602;29;20097;-86
2022/06/14 07:13:19;;;;;;;0.20;0.20;;;27.50;78.70;;;;;;4872295;29;20096;-85
2022/06/14 07:15:59;;;;;;;0.30;0.30;;;27.80;78.70;;;;;;4877361;29;20056;-86
2022/06/14 07:18:29;;;;;;;0.47;0.47;;;28.20;77.40;;;;;;4877227;29;20052;-86
2022/06/14 07:21:03;;;;;;;0.10;0.10;;;28.40;76.70;;;;;;4862765;29;20067;-86
2022/06/14 07:23:40;;;;;;;0.10;0.10;;;28.40;76.40;;;;;;4878085;29;20049;-86
2022/06/14 07:26:50;;;;;;;0.10;0.10;;;27.70;74.60;;;;;;4875897;29;20491;-86
2022/06/14 07:29:30;;;;;;;0.08;0.08;;;27.60;74.80;;;;;;4842677;29;20049;-86
2022/06/14 07:31:59;;;;;;;0.10;0.10;;;26.10;74.40;;;;;;4843320;29;20046;-86
2022/06/14 07:34:27;;;;;;;0.20;0.20;;;25.20;78.30;;;;;;4859480;29;20056;-84
2022/06/14 07:37:24;;;;;;;0.10;0.10;;;25.70;77.90;;;;;;4878020;29;20037;-86
2022/06/14 07:39:55;;;;;;;0.00;0.00;;;26.60;80.10;;;;;;4858633;29;20049;-87
2022/06/14 07:42:33;;;;;;;0.10;0.10;;;27.60;77.60;;;;;;4878130;29;20046;-87
2022/06/14 07:45:03;;;;;;;0.22;0.22;;;28.00;73.30;;;;;;4878329;29;20053;-87
2022/06/14 07:47:57;;;;;;;0.10;0.10;;;27.70;70.50;;;;;;4860979;29;20042;-88
2022/06/14 07:50:47;;;;;;;0.00;0.00;;;28.00;71.80;;;;;;4859445;29;20057;-87
2022/06/14 07:53:19;;;;;;;0.32;0.32;;;28.60;71.90;;;;;;4870092;29;20041;-89
2022/06/14 07:55:50;;;;;;;0.00;0.00;;;29.50;72.60;;;;;;4877928;29;20045;-89
2022/06/14 07:58:24;;;;;;;0.03;0.03;;;30.10;71.20;;;;;;4876883;29;20034;-89
2022/06/14 08:01:08;;;;;;;4.45;0.25;;;30.90;70.80;;;;;;4880672;29;20124;-89
2022/06/14 08:03:50;;;;;;;0.13;0.13;;;30.80;65.10;;;;;;4881423;29;20045;-89
2022/06/14 08:06:31;;;;;;;0.00;0.00;;;30.20;66.90;;;;;;4880148;29;20114;-89
2022/06/14 08:09:24;;;;;;;0.10;0.10;;;30.40;68.10;;;;;;4876907;29;20096;-89
2022/06/14 08:11:54;;;;;;;0.25;0.25;;;30.60;66.90;;;;;;4865621;29;20113;-89
2022/06/14 08:14:42;;;;;;;0.20;0.20;;;31.10;68.10;;;;;;4881232;29;20047;-90
2022/06/14 08:17:09;;;;;;;0.20;0.20;;;31.60;66.60;;;;;;4862440;29;20156;-89
2022/06/14 08:19:42;;;;;;;0.10;0.10;;;31.50;65.10;;;;;;4878027;29;20101;-89
2022/06/14 08:22:14;;;;;;;0.22;0.22;;;31.30;64.00;;;;;;4870512;29;20041;-89
2022/06/14 08:24:45;;;;;;;0.20;0.20;;;30.40;65.00;;;;;;4889978;29;20049;-89
2022/06/14 08:27:22;;;;;;;0.10;0.10;;;29.90;65.80;;;;;;4872081;29;20041;-87
2022/06/14 08:29:50;;;;;;;0.10;0.10;;;29.60;67.10;;;;;;4878486;29;20456;-87
2022/06/14 08:32:25;;;;;;;0.30;0.30;;;30.10;65.60;;;;;;4880842;29;20404;-87
2022/06/14 08:35:03;;;;;;;0.20;0.20;;;29.80;64.90;;;;;;4878587;29;20037;-87
2022/06/14 08:38:04;;;;;;;0.30;0.30;;;29.70;66.90;;;;;;4876477;29;20041;-87
2022/06/14 08:40:58;;;;;;;0.10;0.10;;;27.50;66.80;;;;;;4845362;29;20064;-86
2022/06/14 08:43:28;;;;;;;0.10;0.10;;;27.10;66.90;;;;;;4880558;29;20072;-87
2022/06/14 08:46:12;;;;;;;0.10;0.10;;;25.50;69.20;;;;;;4880988;29;20128;-86
2022/06/14 08:49:20;;;;;;;0.10;0.10;;;25.10;68.60;;;;;;4860900;29;20045;-86
2022/06/14 08:52:08;;;;;;;0.25;0.13;;;24.90;70.00;;;;;;4897549;29;20070;-86
2022/06/14 08:55:03;;;;;;;0.00;0.00;;;24.80;69.50;;;;;;4867087;29;20041;-86
2022/06/14 08:57:37;;;;;;;0.00;0.00;;;24.50;70.00;;;;;;4878376;29;20048;-86
2022/06/14 09:00:11;;;;;;;0.10;0.10;;;24.00;70.50;;;;;;4881432;29;20032;-86
2022/06/14 09:03:15;;;;;;;0.00;0.00;;;24.80;72.50;;;;;;4879004;29;20053;-86
2022/06/14 09:05:53;;;;;;;0.82;0.17;;;27.10;71.70;;;;;;4879892;29;20128;-84
2022/06/14 09:08:25;;;;;;;0.10;0.10;;;29.30;69.90;;;;;;4870953;29;20068;-84
2022/06/14 09:11:18;;;;;;;0.40;0.40;;;30.00;66.10;;;;;;4861344;29;20503;-85
2022/06/14 09:13:59;;;;;;;0.10;0.10;;;28.90;65.30;;;;;;4878403;29;20041;-84
2022/06/14 09:16:47;;;;;;;0.10;0.10;;;28.00;66.30;;;;;;4864610;29;20055;-86
2022/06/14 09:20:00;;;;;;;0.10;0.10;;;27.40;65.80;;;;;;4863555;29;20041;-86
2022/06/14 09:22:46;;;;;;;0.10;0.10;;;26.20;69.20;;;;;;4896948;29;20388;-88
2022/06/14 09:25:51;;;;;;;0.00;0.00;;;25.80;70.60;;;;;;4878737;29;20049;-89
2022/06/14 09:28:41;;;;;;;0.10;0.10;;;27.50;71.40;;;;;;4863819;29;20083;-89
2022/06/14 09:31:31;;;;;;;0.35;0.35;;;29.00;67.50;;;;;;4883539;29;20062;-89
2022/06/14 09:34:12;;;;;;;0.10;0.10;;;30.90;67.50;;;;;;4882799;29;20036;-88
2022/06/14 09:37:03;;;;;;;0.10;0.10;;;31.20;65.10;;;;;;4898549;29;20047;-88
2022/06/14 09:39:35;;;;;;;0.10;0.10;;;29.80;63.40;;;;;;4868397;29;20080;-88
2022/06/14 09:42:03;;;;;;;0.00;0.00;;;28.50;66.30;;;;;;4886080;29;20044;-88
2022/06/14 09:44:51;;;;;;;0.20;0.20;;;27.40;65.70;;;;;;4884167;29;20064;-88
2022/06/14 09:48:02;;;;;;;0.10;0.10;;;26.20;67.80;;;;;;4879565;29;20081;-88
2022/06/14 09:50:49;;;;;;;0.22;0.22;;;25.90;71.20;;;;;;4869906;29;20053;-86
2022/06/14 09:53:33;;;;;;;0.10;0.10;;;26.80;71.50;;;;;;4893659;29;20534;-86
2022/06/14 09:56:10;;;;;;;0.10;0.10;;;27.20;68.90;;;;;;4880863;29;20492;-86
2022/06/14 09:59:13;;;;;;;1.05;0.63;;;26.70;68.70;;;;;;4878117;29;20049;-87
2022/06/14 10:01:51;;;;;;;0.10;0.10;;;24.80;69.80;;;;;;4863645;29;20041;-86
2022/06/14 10:04:25;;;;;;;0.00;0.00;;;24.50;70.40;;;;;;4878124;29;20120;-87
2022/06/14 10:07:45;;;;;;;0.20;0.20;;;23.70;72.30;;;;;;4863913;29;20087;-86
2022/06/14 10:10:23;;;;;;;0.55;0.55;;;23.40;74.20;;;;;;4862829;29;20448;-86
2022/06/14 10:13:07;;;;;;;0.20;0.20;;;23.30;74.70;;;;;;4864769;29;20052;-86
2022/06/14 10:15:53;;;;;;;0.00;0.00;;;23.10;73.80;;;;;;4863068;29;20044;-86
2022/06/14 10:18:19;;;;;;;;;;;25.10;73.50;;;;;;4858890;29;20118;-86
2022/06/14 10:21:11;;;;;;;0.10;0.10;;;26.00;73.80;;;;;;4856602;29;19970;-86
2022/06/14 10:23:51;;;;;;;0.10;0.10;;;27.20;68.10;;;;;;4870399;29;20297;-88
2022/06/14 10:29:37;;;;;;;0.05;0.05;;;29.70;68.10;;;;;;4874588;29;20044;-89
2022/06/14 10:32:30;;;;;;;0.20;0.20;;;31.50;65.70;;;;;;4868988;29;20497;-88
2022/06/14 10:35:07;;;;;;;0.05;0.05;;;30.80;62.50;;;;;;4873717;29;20040;-88
2022/06/14 10:37:52;;;;;;;0.00;0.00;;;29.60;64.30;;;;;;4878493;29;20492;-89
2022/06/14 10:40:18;;;;;;;0.00;0.00;;;26.60;64.90;;;;;;4878694;29;20045;-87
2022/06/14 10:42:47;;;;;;;0.00;0.00;;;25.60;66.50;;;;;;4862343;29;20100;-87
2022/06/14 10:45:21;;;;;;;0.10;0.10;;;24.50;68.40;;;;;;4878811;29;20056;-87
2022/06/14 10:47:59;;;;;;;0.15;0.15;;;23.30;72.20;;;;;;4863375;29;20406;-87
2022/06/14 10:50:47;;;;;;;0.08;0.08;;;23.00;71.30;;;;;;4873650;29;20053;-87
2022/06/14 10:53:36;;;;;;;0.00;0.00;;;22.20;73.50;;;;;;4862184;29;20045;-86
2022/06/14 10:56:02;;;;;;;0.32;0.10;;;21.90;73.40;;;;;;4888161;29;20041;-88
2022/06/14 10:58:46;;;;;;;0.10;0.10;;;21.60;74.80;;;;;;4885851;23;20556;-87
2022/06/14 11:01:26;;;;;;;0.00;0.00;;;21.40;76.40;;;;;;4871913;29;20108;-86
2022/06/14 11:03:52;;;;;;;0.00;0.00;;;21.30;77.30;;;;;;4865812;29;20080;-86
2022/06/14 11:07:07;;;;;;;0.13;0.13;;;21.20;78.20;;;;;;4846738;29;20081;-87
2022/06/14 11:10:00;;;;;;;0.10;0.10;;;21.10;77.20;;;;;;4842622;29;20063;-86
2022/06/14 11:12:54;;;;;;;0.10;0.10;;;21.00;78.60;;;;;;4878217;29;20092;-87
2022/06/14 11:15:27;;;;;;;0.00;0.00;;;21.00;77.10;;;;;;4878248;29;20177;-86
2022/06/14 11:18:28;;;;;;;0.00;0.00;;;21.20;80.00;;;;;;4860198;29;20034;-86
2022/06/14 11:21:25;;;;;;;0.08;0.08;;;21.40;79.10;;;;;;4824947;29;20563;-86
2022/06/14 11:24:09;;;;;;;0.40;0.40;;;21.60;78.10;;;;;;4857179;29;20045;-86
2022/06/14 11:26:55;;;;;;;0.03;0.03;;;21.90;79.90;;;;;;4879483;29;20484;-86
2022/06/14 11:29:40;;;;;;;1.17;0.52;;;22.10;78.60;;;;;;4878882;29;20560;-87
2022/06/14 11:32:15;;;;;;;0.00;0.00;;;22.20;77.20;;;;;;4882126;29;20049;-87
2022/06/14 11:35:07;;;;;;;0.10;0.10;;;22.20;77.10;;;;;;4881020;29;20484;-87
2022/06/14 11:37:57;;;;;;;0.00;0.00;;;22.10;76.60;;;;;;4867051;29;20100;-87
2022/06/14 11:40:34;;;;;;;0.00;0.00;;;22.20;77.00;;;;;;4881724;29;20064;-87
2022/06/14 11:43:27;;;;;;;0.00;0.00;;;22.30;77.10;;;;;;4880624;29;20504;-86
2022/06/14 11:46:36;;;;;;;0.00;0.00;;;22.30;78.20;;;;;;4882371;29;20064;-87
2022/06/14 11:49:27;;;;;;;0.00;0.00;;;22.50;76.70;;;;;;4881580;29;20131;-86
2022/06/14 11:52:08;;;;;;;0.00;0.00;;;22.80;76.10;;;;;;4866025;29;20041;-87
2022/06/14 11:54:52;;;;;;;0.00;0.00;;;22.80;76.10;;;;;;4881496;29;20043;-87
2022/06/14 11:57:49;;;;;;;0.15;0.15;;;23.30;76.70;;;;;;4881582;29;20078;-87
2022/06/14 12:00:15;;;;;;;;;;;23.60;75.80;;;;;;4866410;29;20071;-87
2022/06/14 12:02:53;;;;;;;0.00;0.00;;;23.60;74.50;;;;;;4881543;29;20363;-87
2022/06/14 12:05:30;;;;;;;0.00;0.00;;;23.60;75.30;;;;;;4865775;29;20091;-87
2022/06/14 12:08:12;;;;;;;0.00;0.00;;;23.50;74.10;;;;;;4881780;29;20053;-87
2022/06/14 12:10:56;;;;;;;0.15;0.13;;;23.30;75.60;;;;;;4880999;29;20419;-87
2022/06/14 12:13:28;;;;;;;0.20;0.20;;;23.30;76.60;;;;;;4862382;29;20052;-86
2022/06/14 12:16:00;;;;;;;0.08;0.08;;;23.50;77.20;;;;;;4862427;29;20045;-86
2022/06/14 12:18:28;;;;;;;0.10;0.10;;;;;;;;;;4862387;29;20053;-86
2022/06/14 12:21:07;;;;;;;0.20;0.20;;;23.40;76.20;;;;;;4862405;29;20045;-87
2022/06/14 12:23:46;;;;;;;0.15;0.15;;;23.30;74.00;;;;;;4865229;29;20051;-87
2022/06/14 12:26:37;;;;;;;0.05;0.05;;;23.00;74.20;;;;;;4878731;29;20047;-86
2022/06/14 12:29:18;;;;;;;0.40;0.40;;;23.00;76.90;;;;;;4880893;29;20059;-87
2022/06/14 12:31:49;;;;;;;0.00;0.00;;;23.00;77.20;;;;;;4880739;29;20041;-87
2022/06/14 12:34:41;;;;;;;0.10;0.10;;;22.80;76.10;;;;;;4880658;29;20507;-87
2022/06/14 12:37:29;;;;;;;0.10;0.10;;;22.70;75.10;;;;;;4880705;29;20180;-87
2022/06/14 12:40:05;;;;;;;0.10;0.10;;;22.70;77.10;;;;;;4880617;29;20515;-88
2022/06/14 12:43:02;;;;;;;0.00;0.00;;;22.80;76.90;;;;;;4865428;29;20045;-87
2022/06/14 12:45:56;;;;;;;0.10;0.10;;;22.80;78.00;;;;;;4865309;29;20168;-87
2022/06/14 12:48:42;;;;;;;0.10;0.10;;;22.80;77.70;;;;;;4881017;29;20472;-88
2022/06/14 12:51:43;;;;;;;0.10;0.10;;;22.70;74.90;;;;;;4880276;29;20492;-86
2022/06/14 12:54:34;;;;;;;0.00;0.00;;;22.70;77.50;;;;;;4862949;29;20151;-87
2022/06/14 12:57:12;;;;;;;0.25;0.25;;;22.70;78.30;;;;;;4880321;29;20507;-86
2022/06/14 13:00:04;;;;;;;0.10;0.10;;;22.70;78.90;;;;;;4880079;29;20071;-86
2022/06/14 13:02:33;;;;;;;0.00;0.00;;;22.60;78.30;;;;;;4880423;29;20101;-86
2022/06/14 13:05:11;;;;;;;0.03;0.03;;;22.40;77.60;;;;;;4864939;29;20091;-87
2022/06/14 13:07:58;;;;;;;0.10;0.10;;;22.30;77.60;;;;;;4880069;29;20053;-86
2022/06/14 13:10:46;;;;;;;0.10;0.10;;;22.20;77.60;;;;;;4880123;29;20132;-86
2022/06/14 13:13:36;;;;;;;0.00;0.00;;;22.10;76.40;;;;;;4879903;29;20088;-86
2022/06/14 13:16:20;;;;;;;0.00;0.00;;;22.00;75.50;;;;;;4880071;29;20041;-86
2022/06/14 13:19:13;;;;;;;0.10;0.10;;;21.90;77.90;;;;;;4879873;29;20049;-86
2022/06/14 13:22:06;;;;;;;0.32;0.30;;;21.90;78.90;;;;;;4879884;29;20045;-86
2022/06/14 13:24:36;;;;;;;0.10;0.10;;;21.90;78.60;;;;;;4879596;29;20045;-86
2022/06/14 13:27:26;;;;;;;0.00;0.00;;;21.90;80.00;;;;;;4858844;29;20045;-86
2022/06/14 13:30:01;;;;;;;0.00;0.00;;;22.00;80.60;;;;;;4860780;29;20041;-86
2022/06/14 13:32:36;;;;;;;0.10;0.10;;;22.20;79.10;;;;;;4861184;29;20385;-86
2022/06/14 13:35:14;;;;;;;0.52;0.30;;;22.40;80.10;;;;;;4861204;29;20404;-86
2022/06/14 13:37:53;;;;;;;0.08;0.08;;;22.70;81.60;;;;;;4892057;29;20041;-86
2022/06/14 13:40:40;;;;;;;0.00;0.00;;;23.10;79.90;;;;;;4860902;29;20093;-86
2022/06/14 13:43:32;;;;;;;0.47;0.45;;;23.40;77.10;;;;;;4892081;29;20181;-86
2022/06/14 13:46:09;;;;;;;0.00;0.00;;;23.50;77.00;;;;;;4861133;29;20064;-86
2022/06/14 13:48:40;;;;;;;0.00;0.00;;;23.90;78.10;;;;;;4892175;29;20457;-86
2022/06/14 13:51:24;;;;;;;0.00;0.00;;;24.30;77.00;;;;;;4860716;29;20457;-87
2022/06/14 13:53:59;;;;;;;0.68;0.68;;;24.50;77.10;;;;;;4891286;29;20082;-87
2022/06/14 13:56:37;;;;;;;0.00;0.00;;;24.60;76.10;;;;;;4861124;29;20044;-87
2022/06/14 13:59:25;;;;;;;0.00;0.00;;;24.50;77.30;;;;;;4891694;29;20374;-87
2022/06/14 14:02:00;;;;;;;0.10;0.10;;;24.30;78.70;;;;;;4860805;29;20053;-87
2022/06/14 14:04:33;;;;;;;0.35;0.20;;;23.90;76.60;;;;;;4891631;29;20057;-87
2022/06/14 14:07:16;;;;;;;0.00;0.00;;;23.70;79.60;;;;;;4860582;29;20508;-87
2022/06/14 14:10:04;;;;;;;1.98;0.30;;;23.60;77.80;;;;;;4891892;29;20121;-87
2022/06/14 14:13:05;;;;;;;0.00;0.00;;;23.50;76.20;;;;;;4860212;29;20046;-87